createdAt,value
2022-10-17T00:00:32.009Z,1011.4
2022-10-17T00:05:38.112Z,1011.3
2022-10-17T00:10:44.207Z,1011.2
2022-10-17T00:15:50.301Z,1011.3
2022-10-17T00:20:56.381Z,1011.4
2022-10-17T00:26:02.498Z,1011.2
2022-10-17T00:31:08.575Z,1011.3
2022-10-17T00:36:14.710Z,1011.2
2022-10-17T00:41:20.779Z,1011.3
2022-10-17T00:46:26.882Z,1011.3
2022-10-17T00:51:32.974Z,1011.2
2022-10-17T00:56:39.078Z,1011.2
2022-10-17T01:01:44.193Z,1011.2
2022-10-17T01:06:50.327Z,1011.3
2022-10-17T01:11:56.374Z,1011.3
2022-10-17T01:17:02.485Z,1011.4
2022-10-17T01:22:08.567Z,1011.4
2022-10-17T01:27:14.681Z,1011.3
2022-10-17T01:32:20.867Z,1011.3
2022-10-17T01:37:26.901Z,1011.3
2022-10-17T01:42:32.964Z,1011.3
2022-10-17T01:47:39.096Z,1011.3
2022-10-17T01:52:45.163Z,1011.1
2022-10-17T01:57:51.242Z,1011.1
2022-10-17T02:02:57.339Z,1011.1
2022-10-17T02:08:02.496Z,1011.1
2022-10-17T02:13:08.575Z,1011.1
2022-10-17T02:18:14.665Z,1011.1
2022-10-17T02:23:20.818Z,1011.2
2022-10-17T02:28:26.841Z,1011.2
2022-10-17T02:33:32.991Z,1011.1
2022-10-17T02:38:39.031Z,1011.1
2022-10-17T02:43:45.156Z,1011.1
2022-10-17T02:48:51.305Z,1011.2
2022-10-17T02:53:57.333Z,1011.2
2022-10-17T02:59:03.443Z,1011.3
2022-10-17T03:04:09.523Z,1011.1
2022-10-17T03:09:15.664Z,1011.2
2022-10-17T03:14:20.738Z,1011.2
2022-10-17T03:19:26.832Z,1011.2
2022-10-17T03:24:32.921Z,1011.2
2022-10-17T03:29:39.029Z,1011.3
2022-10-17T03:34:45.132Z,1011.3
2022-10-17T03:39:51.212Z,1011.4
2022-10-17T03:44:57.298Z,1011.5
2022-10-17T03:50:03.418Z,1011.4
2022-10-17T03:55:09.563Z,1011.4
2022-10-17T04:00:15.597Z,1011.4
2022-10-17T04:05:21.690Z,1011.5
2022-10-17T04:10:27.796Z,1011.5
2022-10-17T04:15:33.881Z,1011.5
2022-10-17T04:20:38.988Z,1011.5
2022-10-17T04:25:45.121Z,1011.5
2022-10-17T04:30:51.192Z,1011.4
2022-10-17T04:35:57.278Z,1011.5
2022-10-17T04:46:09.482Z,1011.5
2022-10-17T04:51:15.577Z,1011.6
2022-10-17T04:56:21.727Z,1011.7
2022-10-17T05:01:27.778Z,1011.7
2022-10-17T05:06:33.876Z,1011.7
2022-10-17T05:11:39.963Z,1011.7
2022-10-17T05:16:46.089Z,1011.7
2022-10-17T05:21:52.182Z,1011.7
2022-10-17T05:26:57.270Z,1011.7
2022-10-17T05:32:03.368Z,1011.8
2022-10-17T05:37:09.459Z,1011.8
2022-10-17T05:42:15.558Z,1011.8
2022-10-17T05:47:21.657Z,1011.8
2022-10-17T05:52:27.839Z,1011.8
2022-10-17T05:57:33.939Z,1011.9
2022-10-17T06:02:40.111Z,1011.9
2022-10-17T06:07:46.134Z,1012
2022-10-17T06:12:52.198Z,1012.2
2022-10-17T06:17:58.348Z,1012.2
2022-10-17T06:23:04.410Z,1012.2
2022-10-17T06:28:10.513Z,1012.3
2022-10-17T06:33:15.697Z,1012.4
2022-10-17T06:38:21.711Z,1012.4
2022-10-17T06:43:27.802Z,1012.4
2022-10-17T06:48:33.887Z,1012.3
2022-10-17T06:53:39.994Z,1012.4
2022-10-17T06:58:46.119Z,1012.4
2022-10-17T07:03:52.220Z,1012.4
2022-10-17T07:08:58.327Z,1012.6
2022-10-17T07:14:04.485Z,1012.6
2022-10-17T07:19:10.498Z,1012.6
2022-10-17T07:24:16.618Z,1012.6
2022-10-17T07:29:22.668Z,1012.6
2022-10-17T07:34:28.794Z,1012.6
2022-10-17T07:39:33.869Z,1012.7
2022-10-17T07:44:39.969Z,1012.8
2022-10-17T07:49:46.072Z,1012.8
2022-10-17T07:54:52.163Z,1012.9
2022-10-17T07:59:58.257Z,1012.8
2022-10-17T08:05:04.348Z,1012.8
2022-10-17T08:10:10.447Z,1012.8
2022-10-17T08:15:16.567Z,1012.8
2022-10-17T08:20:22.623Z,1012.8
2022-10-17T08:25:28.725Z,1012.8
2022-10-17T08:30:34.812Z,1012.8
2022-10-17T08:35:40.936Z,1012.7
2022-10-17T08:40:47.006Z,1012.7
2022-10-17T08:45:52.118Z,1012.6
2022-10-17T08:50:58.217Z,1012.7
2022-10-17T08:56:04.310Z,1012.5
2022-10-17T09:01:10.401Z,1012.6
2022-10-17T09:06:16.548Z,1012.4
2022-10-17T09:11:22.608Z,1012.4
2022-10-17T09:16:28.712Z,1012.4
2022-10-17T09:21:34.786Z,1012.4
2022-10-17T09:26:40.873Z,1012.4
2022-10-17T09:31:46.983Z,1012.5
2022-10-17T09:36:53.077Z,1012.4
2022-10-17T09:41:59.179Z,1012.3
2022-10-17T09:47:05.423Z,1012.3
2022-10-17T09:52:10.546Z,1012.3
2022-10-17T09:57:16.638Z,1012.3
2022-10-17T10:02:22.734Z,1012.2
2022-10-17T10:07:28.815Z,1012.2
2022-10-17T10:12:34.898Z,1012.2
2022-10-17T10:17:41.021Z,1012.2
2022-10-17T10:22:46.050Z,1012.3
2022-10-17T10:27:52.247Z,1012.1
2022-10-17T10:32:58.326Z,1012.1
2022-10-17T10:38:04.413Z,1012.1
2022-10-17T10:43:10.469Z,1012
2022-10-17T10:48:16.590Z,1012
2022-10-17T10:53:22.698Z,1011.9
2022-10-17T10:58:28.654Z,1012
2022-10-17T11:03:34.892Z,1012
2022-10-17T11:08:40.999Z,1012
2022-10-17T11:13:47.101Z,1011.9
2022-10-17T11:18:53.183Z,1011.9
2022-10-17T11:23:59.216Z,1011.9
2022-10-17T11:29:04.406Z,1011.9
2022-10-17T11:34:10.498Z,1011.8
2022-10-17T11:39:16.567Z,1011.8
2022-10-17T11:44:22.705Z,1011.7
2022-10-17T11:49:28.778Z,1011.7
2022-10-17T11:54:34.882Z,1011.7
2022-10-17T11:59:40.947Z,1011.6
2022-10-17T12:04:47.065Z,1011.5
2022-10-17T12:09:53.139Z,1011.4
2022-10-17T12:14:59.229Z,1011.4
2022-10-17T12:20:05.393Z,1011.4
2022-10-17T12:25:11.435Z,1011.4
2022-10-17T12:30:17.536Z,1011.5
2022-10-17T12:35:22.743Z,1011.5
2022-10-17T12:40:28.706Z,1011.3
2022-10-17T12:45:34.836Z,1011.3
2022-10-17T12:50:40.905Z,1011.3
2022-10-17T12:55:46.999Z,1011.2
2022-10-17T13:00:53.093Z,1011.2
2022-10-17T13:05:59.241Z,1011.2
2022-10-17T13:11:05.263Z,1011.2
2022-10-17T13:16:11.410Z,1011.2
2022-10-17T13:21:17.360Z,1011.2
2022-10-17T13:26:23.547Z,1011.3
2022-10-17T13:31:29.708Z,1011.4
2022-10-17T13:36:35.735Z,1011.4
2022-10-17T13:41:40.878Z,1011.3
2022-10-17T13:46:47.009Z,1011.3
2022-10-17T13:51:53.102Z,1011.3
2022-10-17T13:56:59.169Z,1011.4
2022-10-17T14:02:05.294Z,1011.4
2022-10-17T14:07:11.367Z,1011.4
2022-10-17T14:12:17.364Z,1011.3
2022-10-17T14:17:23.575Z,1011.3
2022-10-17T14:22:29.649Z,1011.3
2022-10-17T14:27:35.679Z,1011.3
2022-10-17T14:32:41.736Z,1011.2
2022-10-17T14:37:47.829Z,1011.3
2022-10-17T14:42:53.914Z,1011.3
2022-10-17T14:47:59.019Z,1011.3
2022-10-17T14:53:05.128Z,1011.3
2022-10-17T14:58:11.220Z,1011.3
2022-10-17T15:03:17.316Z,1011.3
2022-10-17T15:08:23.400Z,1011.4
2022-10-17T15:13:29.536Z,1011.4
2022-10-17T15:18:35.601Z,1011.5
2022-10-17T15:23:41.706Z,1011.5
2022-10-17T15:28:47.794Z,1011.5
2022-10-17T15:33:53.891Z,1011.4
2022-10-17T15:44:06.075Z,1011.5
2022-10-17T15:49:12.182Z,1011.5
2022-10-17T15:54:17.305Z,1011.5
2022-10-17T15:59:23.373Z,1011.5
2022-10-17T16:04:29.472Z,1011.7
2022-10-17T16:09:35.569Z,1011.7
2022-10-17T16:14:41.665Z,1011.9
2022-10-17T16:19:47.755Z,1011.9
2022-10-17T16:24:53.872Z,1012
2022-10-17T16:29:59.946Z,1012.1
2022-10-17T16:35:06.062Z,1012.1
2022-10-17T16:40:12.158Z,1012.2
2022-10-17T16:45:18.246Z,1012.2
2022-10-17T16:50:24.335Z,1012.3
2022-10-17T16:55:30.444Z,1012.3
2022-10-17T17:00:35.540Z,1012.3
2022-10-17T17:05:41.665Z,1012.4
2022-10-17T17:10:47.733Z,1012.5
2022-10-17T17:15:53.841Z,1012.5
2022-10-17T17:20:59.939Z,1012.4
2022-10-17T17:26:06.032Z,1012.5
2022-10-17T17:31:12.116Z,1012.6
2022-10-17T17:36:18.199Z,1012.7
2022-10-17T17:41:24.316Z,1012.7
2022-10-17T17:46:30.422Z,1012.7
2022-10-17T17:51:36.503Z,1012.7
2022-10-17T17:56:42.593Z,1012.8
2022-10-17T18:01:48.747Z,1012.8
2022-10-17T18:06:53.804Z,1012.8
2022-10-17T18:11:59.902Z,1012.9
2022-10-17T18:17:05.992Z,1012.9
2022-10-17T18:22:12.092Z,1012.9
2022-10-17T18:27:18.169Z,1013
2022-10-17T18:32:24.283Z,1013.1
2022-10-17T18:37:30.524Z,1013.1
2022-10-17T18:42:36.470Z,1013.1
2022-10-17T18:47:42.558Z,1013.2
2022-10-17T18:52:48.669Z,1013.3
2022-10-17T18:57:54.773Z,1013.2
2022-10-17T19:03:00.864Z,1013.3
2022-10-17T19:08:06.947Z,1013.4
2022-10-17T19:13:12.055Z,1013.4
2022-10-17T19:18:18.181Z,1013.5
2022-10-17T19:23:24.247Z,1013.4
2022-10-17T19:28:30.347Z,1013.5
2022-10-17T19:33:36.444Z,1013.5
2022-10-17T19:38:42.558Z,1013.5
2022-10-17T19:43:48.659Z,1013.6
2022-10-17T19:48:54.732Z,1013.6
2022-10-17T19:54:00.839Z,1013.6
2022-10-17T19:59:06.980Z,1013.6
2022-10-17T20:04:13.030Z,1013.7
2022-10-17T20:09:19.147Z,1013.7
2022-10-17T20:14:25.236Z,1013.7
2022-10-17T20:24:36.451Z,1013.8
2022-10-17T20:29:42.541Z,1013.9
2022-10-17T20:34:48.625Z,1013.9
2022-10-17T20:39:54.718Z,1013.9
2022-10-17T20:45:00.840Z,1014
2022-10-17T20:50:06.948Z,1013.9
2022-10-17T20:55:13.019Z,1014.1
2022-10-17T21:00:19.110Z,1014
2022-10-17T21:05:25.211Z,1014.1
2022-10-17T21:10:31.312Z,1014.1
2022-10-17T21:15:37.396Z,1014.1
2022-10-17T21:20:43.511Z,1014.1
2022-10-17T21:25:48.632Z,1014.2
2022-10-17T21:30:54.708Z,1014.2
2022-10-17T21:36:00.811Z,1014.1
2022-10-17T21:41:06.939Z,1014
2022-10-17T21:46:12.999Z,1014.1
2022-10-17T21:51:19.111Z,1014.1
2022-10-17T21:56:25.206Z,1014.2
2022-10-17T22:01:31.323Z,1014.2
2022-10-17T22:06:37.504Z,1014.2
2022-10-17T22:11:43.499Z,1014.3
2022-10-17T22:16:49.597Z,1014.3
2022-10-17T22:21:55.673Z,1014.4
2022-10-17T22:27:01.793Z,1014.3
2022-10-17T22:32:06.904Z,1014.4
2022-10-17T22:37:13.006Z,1014.4
2022-10-17T22:42:19.075Z,1014.3
2022-10-17T22:47:25.173Z,1014.4
2022-10-17T22:52:31.265Z,1014.4
2022-10-17T22:57:37.371Z,1014.4
2022-10-17T23:02:43.468Z,1014.3
2022-10-17T23:07:49.569Z,1014.4
2022-10-17T23:12:55.673Z,1014.5
2022-10-17T23:18:01.759Z,1014.5
2022-10-17T23:23:07.863Z,1014.4
2022-10-17T23:28:13.954Z,1014.4
2022-10-17T23:33:20.049Z,1014.5
2022-10-17T23:38:25.150Z,1014.5
2022-10-17T23:43:31.251Z,1014.5
2022-10-17T23:48:37.355Z,1014.5
2022-10-17T23:53:43.453Z,1014.5
2022-10-17T23:58:49.557Z,1014.5
